This is the latest recevied weather packets stored in our database for station/object DB0TGO-13. If no packets are shown the sender has not sent any weather packets the latest 10 day(s).
| Time | Temp. | Humidity | Pressure | Rain* | Wind** | Luminosity | Snow |
|---|---|---|---|---|---|---|---|
| 1777777203 | 11.67° C | 60% | 1008.3 hPa | - | - | - | - |
| 1777754702 | 19.44° C | 40% | 1010.6 hPa | - | - | - | - |
| 1777753802 | 19.44° C | 40% | 1010.6 hPa | - | - | - | - |
| 1777752903 | 20° C | 37% | 1010.7 hPa | - | - | - | - |
| 1777752002 | 20° C | 37% | 1010.7 hPa | - | - | - | - |
| 1777751103 | 21.67° C | 33% | 1010.7 hPa | - | - | - | - |
| 1777750202 | 21.67° C | 33% | 1010.7 hPa | - | - | - | - |
| 1777749303 | 22.78° C | 30% | 1010.6 hPa | - | - | - | - |
| 1777748402 | 22.78° C | 30% | 1010.6 hPa | - | - | - | - |
| 1777747503 | 23.89° C | 28% | 1010.6 hPa | - | - | - | - |
| 1777746602 | 23.89° C | 28% | 1010.6 hPa | - | - | - | - |
| 1777745702 | 25° C | 26% | 1010.7 hPa | - | - | - | - |
| 1777744802 | 25° C | 26% | 1010.7 hPa | - | - | - | - |
| 1777743902 | 25° C | 26% | 1010.8 hPa | - | - | - | - |
| 1777743002 | 25° C | 26% | 1010.8 hPa | - | - | - | - |
| 1777742103 | 25° C | 26% | 1011.2 hPa | - | - | - | - |
| 1777741202 | 25° C | 26% | 1011.2 hPa | - | - | - | - |
| 1777740302 | 25.56° C | 24% | 1011.5 hPa | - | - | - | - |
| 1777739402 | 25.56° C | 24% | 1011.5 hPa | - | - | - | - |
| 1777738503 | 25.56° C | 23% | 1012 hPa | - | - | - | - |
| 1777737602 | 25.56° C | 23% | 1012 hPa | - | - | - | - |
| 1777736703 | 25° C | 22% | 1012.5 hPa | - | - | - | - |
| 1777735802 | 25° C | 22% | 1012.5 hPa | - | - | - | - |
| 1777734903 | 26.11° C | 24% | 1012.8 hPa | - | - | - | - |
| 1777734002 | 26.11° C | 24% | 1012.8 hPa | - | - | - | - |
* Rain since midnight (hover to see other rain measurements)
** Current wind speed in m/s (hover to see current wind gust speed)